Terminal Aerodrome Forecast
Issued by NWS Cleveland, OH

Home | Current Version | Previous Version | Graphics & Text | Print | Product List | Glossary On
Versions: 1 2 3 4 5 6 7 8 9 10 11 12 13 14 15 16 17 18 19 20 21 22
695
FTUS41 KCLE 171357 AAA
TAFTOL
TAF AMD
KTOL 171357Z 1714/1812 18005KT P6SM SCT050 OVC110
     FM171600 19010KT 6SM -SHRA VCTS SCT030 BKN050CB
      TEMPO 1716/1719 2SM TSRA OVC025CB
     FM172100 21010G20KT P6SM VCSH SCT040 BKN060
     FM172300 23008KT P6SM SCT060 BKN200=

USA.gov is the U.S. government's official web portal to all federal, state and local government web resources and services.